Terminal Aerodrome Forecast
Issued by NWS Cleveland, OH

Home | Current Version | Previous Version | Graphics & Text | Print | Product List | Glossary On
Versions: 1 2 3 4 5 6 7 8 9 10 11 12 13 14 15 16 17 18 19 20 21
892
FTUS41 KCLE 230831 AAA
TAFCAK
TAF AMD
KCAK 230831Z 2309/2406 19010KT 4SM BR OVC005
      TEMPO 2309/2313 6SM BR SCT005 BKN015
     FM231300 20009KT 5SM BR BKN008
     FM231600 22010KT 6SM HZ BKN020
     FM232200 23006KT 5SM BR VCSH OVC025
     FM240300 16005KT 3SM -RA BR OVC012=

USA.gov is the U.S. government's official web portal to all federal, state and local government web resources and services.